Time;durP1;ratioP1;P1;durP2;ratioP2;P2;SDS_P1;SDS_P2;PMS_P1;PMS_P2;Temp;Humidity;BMP_temperature;BMP_pressure;BME280_temperature;BME280_humidity;BME280_pressure;Samples;Min_cycle;Max_cycle;Signal;HPM_P1;HPM_P2
2021/05/26 00:01:27;;;;;;;0.81;0.34;;;;;;;8.35;87.84;99391.28;2005800;79;20946;-81
2021/05/26 00:04:30;;;;;;;2.04;0.38;;;;;;;8.36;87.95;99382.66;2007392;80;21226;-81
2021/05/26 00:07:32;;;;;;;4.43;0.46;;;;;;;8.35;88.21;99380.06;2006823;80;20357;-80
2021/05/26 00:10:35;;;;;;;2.17;0.55;;;;;;;8.33;88.36;99381.75;2009743;80;20933;-80
2021/05/26 00:13:38;;;;;;;0.75;0.31;;;;;;;8.32;88.42;99383.47;2006539;80;20468;-81
2021/05/26 00:16:40;;;;;;;1.34;0.40;;;;;;;8.31;88.48;99374.00;2003910;78;24303;-81
2021/05/26 00:19:44;;;;;;;1.94;0.44;;;;;;;8.34;88.43;99378.34;2002074;81;20320;-81
2021/05/26 00:22:46;;;;;;;2.36;0.50;;;;;;;8.35;88.40;99369.72;2001699;80;20308;-81
2021/05/26 00:25:49;;;;;;;1.98;0.50;;;;;;;8.34;88.64;99358.50;2002366;81;20316;-82
2021/05/26 00:28:54;;;;;;;1.42;0.50;;;;;;;8.39;88.84;99364.56;2003966;81;20359;-83
2021/05/26 00:31:56;;;;;;;0.51;0.35;;;;;;;8.40;88.78;99363.69;2002149;78;23294;-81
2021/05/26 00:34:59;;;;;;;1.98;0.55;;;;;;;8.41;88.71;99365.41;2006198;80;20699;-81
2021/05/26 00:38:03;;;;;;;0.79;0.43;;;;;;;8.42;88.75;99361.97;2007174;80;20359;-81
2021/05/26 00:41:06;;;;;;;1.54;0.40;;;;;;;8.41;88.84;99368.00;2006095;80;20339;-81
2021/05/26 00:44:08;;;;;;;1.99;0.43;;;;;;;8.43;88.83;99355.94;2008090;80;20578;-81
2021/05/26 00:47:11;;;;;;;0.79;0.40;;;;;;;8.44;88.98;99333.56;2006009;78;20783;-81
2021/05/26 00:50:26;;;;;;;1.25;0.50;;;;;;;8.45;88.98;99332.69;2007607;80;20544;-81
2021/05/26 00:53:30;;;;;;;3.24;1.04;;;;;;;8.42;89.37;99343.88;2009604;80;20432;-80
2021/05/26 00:56:34;;;;;;;0.60;0.40;;;;;;;8.45;89.50;99330.09;2007418;80;20912;-81
2021/05/26 00:59:37;;;;;;;1.16;0.40;;;;;;;8.46;89.52;99326.66;2007049;80;20961;-80
2021/05/26 01:02:40;;;;;;;1.61;0.60;;;;;;;8.43;89.63;99317.13;2005123;78;21968;-81
2021/05/26 01:05:44;;;;;;;1.56;0.51;;;;;;;8.44;89.52;99316.31;2006855;80;20236;-81
2021/05/26 01:08:47;;;;;;;1.50;0.40;;;;;;;8.44;89.65;99326.66;2007018;80;20161;-81
2021/05/26 01:11:49;;;;;;;2.63;0.50;;;;;;;8.45;89.57;99348.22;2014593;80;20385;-83
2021/05/26 01:14:52;;;;;;;3.08;0.49;;;;;;;8.47;89.36;99333.56;2011691;80;20441;-83
2021/05/26 01:17:54;;;;;;;1.85;0.50;;;;;;;8.46;89.53;99321.47;2012553;78;20797;-82
2021/05/26 01:21:00;;;;;;;1.10;0.43;;;;;;;8.51;89.62;99316.31;2008343;80;20186;-81
2021/05/26 01:24:03;;;;;;;1.75;0.44;;;;;;;8.54;89.63;99304.22;2011239;80;21026;-83
2021/05/26 01:27:06;;;;;;;2.54;0.60;;;;;;;8.55;89.80;99289.56;2015421;80;20215;-83
2021/05/26 01:30:10;;;;;;;2.44;0.50;;;;;;;8.58;89.66;99284.41;2014241;80;20957;-83
2021/05/26 01:33:13;;;;;;;2.65;0.59;;;;;;;8.59;89.60;99280.94;2016234;80;20217;-83
2021/05/26 01:36:16;;;;;;;2.56;0.60;;;;;;;8.57;89.56;99280.94;2011452;80;20320;-83
2021/05/26 01:39:19;;;;;;;1.46;0.44;;;;;;;8.52;89.71;99274.91;2013011;80;20189;-83
2021/05/26 01:42:32;;;;;;;1.02;0.43;;;;;;;8.55;90.00;99274.91;2015031;80;20335;-82
2021/05/26 01:45:36;;;;;;;1.70;0.60;;;;;;;8.58;89.97;99267.13;2005883;78;21467;-80
2021/05/26 01:48:38;;;;;;;3.36;0.80;;;;;;;8.59;90.06;99278.34;2006690;80;20177;-79
2021/05/26 01:51:41;;;;;;;1.15;0.60;;;;;;;8.61;89.95;99274.91;2006161;80;20320;-80
2021/05/26 01:54:44;;;;;;;2.38;0.85;;;;;;;8.62;89.76;99266.31;2006285;80;20193;-80
2021/05/26 01:57:47;;;;;;;1.76;0.54;;;;;;;8.58;89.74;99258.50;2006071;80;20250;-80
2021/05/26 02:00:49;;;;;;;2.45;0.60;;;;;;;8.59;89.91;99263.69;2005526;78;20201;-81
2021/05/26 02:03:53;;;;;;;1.29;0.60;;;;;;;8.58;89.92;99264.56;2008004;80;20206;-81
2021/05/26 02:07:10;;;;;;;1.66;0.80;;;;;;;8.58;89.86;99255.94;2008263;80;20851;-81
2021/05/26 02:12:19;;;;;;;1.13;0.70;;;;;;;8.56;89.96;99245.56;2008323;80;20327;-80
2021/05/26 02:13:40;;;;;;;1.90;0.60;;;;;;;8.57;90.00;99243.84;2009046;80;20177;-80
2021/05/26 02:16:43;;;;;;;2.84;0.60;;;;;;;8.55;89.94;99254.19;2007339;78;21131;-79
2021/05/26 02:19:46;;;;;;;2.42;0.60;;;;;;;8.55;89.98;99258.50;2008440;80;20418;-80
2021/05/26 02:22:49;;;;;;;1.60;0.60;;;;;;;8.56;89.95;99257.66;2011590;80;20211;-80
2021/05/26 02:25:51;;;;;;;1.09;0.43;;;;;;;8.56;90.02;99258.50;2008664;80;20169;-81
2021/05/26 02:28:55;;;;;;;1.56;0.70;;;;;;;8.58;90.10;99248.16;2008838;80;20197;-81
2021/05/26 02:31:58;;;;;;;2.61;0.70;;;;;;;8.61;90.17;99253.34;2008159;78;20717;-80
2021/05/26 02:35:01;;;;;;;2.35;0.50;;;;;;;8.60;90.33;99254.19;2008761;80;20320;-80
2021/05/26 02:38:04;;;;;;;1.23;0.70;;;;;;;8.59;90.33;99242.97;2008243;80;20948;-80
2021/05/26 02:41:07;;;;;;;2.54;0.73;;;;;;;8.58;90.30;99228.31;2005621;80;20327;-81
2021/05/26 02:44:10;;;;;;;1.36;0.54;;;;;;;8.57;90.49;99230.91;2009163;80;20198;-81
2021/05/26 02:47:13;;;;;;;2.55;0.70;;;;;;;8.57;90.56;99217.97;2009407;78;21120;-81
2021/05/26 02:50:19;;;;;;;1.06;0.54;;;;;;;8.57;90.57;99200.72;2009487;80;20722;-81
2021/05/26 02:53:22;;;;;;;2.14;0.60;;;;;;;8.59;90.70;99201.59;2008862;80;21019;-81
2021/05/26 02:56:25;;;;;;;1.75;0.80;;;;;;;8.62;90.71;99193.84;2011323;80;20307;-82
2021/05/26 02:59:27;;;;;;;1.01;0.70;;;;;;;8.62;90.55;99201.59;2012543;80;20676;-82
2021/05/26 03:02:30;;;;;;;1.89;0.52;;;;;;;8.62;90.50;99203.34;2013842;78;23877;-82
2021/05/26 03:05:33;;;;;;;2.79;1.09;;;;;;;8.63;90.40;99194.72;2014735;80;20261;-83
2021/05/26 03:08:36;;;;;;;4.59;0.93;;;;;;;8.65;90.23;99185.22;2011539;80;20542;-74
2021/05/26 03:11:39;;;;;;;3.89;0.70;;;;;;;8.63;90.08;99194.72;2007531;80;20189;-82
2021/05/26 03:14:41;;;;;;;4.38;0.86;;;;;;;8.64;90.19;99173.13;2013387;80;20331;-81
2021/05/26 03:17:45;;;;;;;3.13;0.68;;;;;;;8.64;90.24;99171.41;2012261;78;26963;-82
2021/05/26 03:20:49;;;;;;;2.56;0.89;;;;;;;8.67;90.13;99167.94;2013886;80;20380;-82
2021/05/26 03:23:52;;;;;;;2.15;0.50;;;;;;;8.64;90.03;99165.38;2014523;80;20176;-81
2021/05/26 03:26:54;;;;;;;3.28;0.74;;;;;;;8.64;90.06;99165.38;2012887;80;20411;-82
2021/05/26 03:29:57;;;;;;;2.21;0.60;;;;;;;8.65;89.98;99167.97;2014787;80;20273;-82
2021/05/26 03:33:11;;;;;;;2.50;0.70;;;;;;;8.66;90.02;99156.75;2012010;80;20626;-82
2021/05/26 03:36:14;;;;;;;1.60;1.11;;;;;;;8.65;89.91;99147.25;2012935;80;20177;-81
2021/05/26 03:39:17;;;;;;;5.66;0.60;;;;;;;8.64;90.01;99160.19;2011796;80;20365;-81
2021/05/26 03:42:19;;;;;;;2.26;0.64;;;;;;;8.66;90.00;99151.56;2011580;80;20716;-82
2021/05/26 03:45:22;;;;;;;3.75;1.02;;;;;;;8.66;89.97;99148.13;2011894;80;20165;-81
2021/05/26 03:48:25;;;;;;;0.68;0.52;;;;;;;8.66;90.00;99148.13;2012527;80;20339;-82
2021/05/26 03:51:27;;;;;;;3.11;0.66;;;;;;;8.67;90.13;99149.84;2014988;80;20246;-82
2021/05/26 03:54:30;;;;;;;4.28;1.21;;;;;;;8.65;90.27;99148.97;2015385;80;20191;-83
2021/05/26 03:57:33;;;;;;;1.52;0.57;;;;;;;8.68;90.23;99138.63;2016370;80;20331;-80
2021/05/26 04:00:35;;;;;;;3.88;0.65;;;;;;;8.69;90.38;99155.88;2009402;80;20189;-82
2021/05/26 04:03:38;;;;;;;1.80;0.60;;;;;;;8.72;90.30;99142.91;2015041;80;20638;-82
2021/05/26 04:06:41;;;;;;;1.19;0.68;;;;;;;8.74;90.30;99136.88;2013190;80;20165;-81
2021/05/26 04:09:43;;;;;;;2.50;0.60;;;;;;;8.76;90.39;99134.28;2012836;80;20214;-82
2021/05/26 04:12:46;;;;;;;3.86;0.80;;;;;;;8.76;90.39;99129.09;2012313;80;20169;-82
2021/05/26 04:15:48;;;;;;;2.60;0.70;;;;;;;8.75;90.27;99120.47;2012215;78;20250;-81
2021/05/26 04:18:51;;;;;;;1.64;0.70;;;;;;;8.74;90.26;99126.53;2014783;80;20223;-83
2021/05/26 04:21:54;;;;;;;2.36;0.64;;;;;;;8.73;90.18;99122.22;2011883;80;20844;-81
2021/05/26 04:24:57;;;;;;;3.15;0.60;;;;;;;8.77;90.30;99118.75;2007807;80;20172;-82
2021/05/26 04:27:59;;;;;;;3.36;0.73;;;;;;;8.78;90.37;99120.47;2007045;80;20341;-81
2021/05/26 04:31:02;;;;;;;4.50;0.75;;;;;;;8.83;90.50;99117.91;2003894;78;35142;-80
2021/05/26 04:34:04;;;;;;;2.17;0.81;;;;;;;8.85;90.47;99118.75;2003956;80;20896;-81
2021/05/26 04:37:07;;;;;;;2.30;0.68;;;;;;;8.86;90.44;99107.53;2007657;80;20198;-81
2021/05/26 04:40:10;;;;;;;2.97;1.19;;;;;;;8.89;90.51;99112.69;2007022;80;20363;-81
2021/05/26 04:43:13;;;;;;;4.24;0.85;;;;;;;8.92;90.55;99104.91;2007099;80;20344;-81
2021/05/26 04:46:15;;;;;;;2.81;0.70;;;;;;;8.97;90.46;99112.66;2006202;80;21977;-80
2021/05/26 04:49:18;;;;;;;2.04;0.61;;;;;;;9.01;90.41;99109.22;2007257;80;20661;-81
2021/05/26 04:52:25;;;;;;;2.90;0.71;;;;;;;9.06;90.39;99099.69;2008240;80;20206;-80
2021/05/26 04:55:27;;;;;;;3.94;0.50;;;;;;;9.11;90.41;99092.78;2009767;80;20206;-80
2021/05/26 04:58:30;;;;;;;5.84;0.85;;;;;;;9.16;90.43;99095.38;2006681;80;20185;-81
2021/05/26 05:01:33;;;;;;;3.59;0.80;;;;;;;9.14;90.27;99102.25;2007291;78;20709;-81
2021/05/26 05:04:36;;;;;;;2.84;0.61;;;;;;;9.19;90.41;99103.97;2008459;80;20180;-81
2021/05/26 05:07:38;;;;;;;2.92;0.70;;;;;;;9.23;90.42;99094.47;2009659;80;20242;-80
2021/05/26 05:10:41;;;;;;;3.92;0.76;;;;;;;9.22;90.19;99103.09;2007508;80;20892;-80
2021/05/26 05:13:43;;;;;;;4.65;1.21;;;;;;;9.28;90.28;99097.88;2007074;80;20192;-78
2021/05/26 05:16:46;;;;;;;3.59;0.85;;;;;;;9.27;90.03;99093.56;2005738;78;21867;-79
2021/05/26 05:19:49;;;;;;;3.13;0.70;;;;;;;9.27;90.13;99099.63;2006441;80;20262;-78
2021/05/26 05:26:11;;;;;;;2.49;0.70;;;;;;;9.26;89.55;99090.13;2056316;70;20288;-79
2021/05/26 05:29:14;;;;;;;5.03;1.20;;;;;;;9.30;89.71;99093.56;2012284;80;20629;-79
2021/05/26 05:32:17;;;;;;;2.28;0.69;;;;;;;9.28;89.15;99090.97;2011147;78;24216;-78
2021/05/26 05:35:19;;;;;;;4.76;0.70;;;;;;;9.30;89.29;99083.19;2012070;80;20169;-79
2021/05/26 05:38:22;;;;;;;2.39;0.77;;;;;;;9.35;89.33;99090.09;2011841;80;20188;-77
2021/05/26 05:41:25;;;;;;;2.97;0.80;;;;;;;9.35;88.98;99091.84;2012683;80;20198;-78
2021/05/26 05:44:27;;;;;;;4.85;0.82;;;;;;;9.39;89.11;99084.03;2012427;80;20700;-79
2021/05/26 05:47:30;;;;;;;5.49;1.10;;;;;;;9.37;88.71;99087.50;2006784;78;25092;-81
2021/05/26 05:50:32;;;;;;;4.29;1.14;;;;;;;9.33;88.34;99081.44;2007128;80;20325;-79
2021/05/26 05:53:35;;;;;;;4.14;0.60;;;;;;;9.35;88.38;99086.66;2005485;80;20181;-79
2021/05/26 05:56:38;;;;;;;3.78;0.81;;;;;;;9.39;88.54;99078.84;2011149;80;20212;-81
2021/05/26 05:59:40;;;;;;;5.89;0.98;;;;;;;9.49;88.58;99082.25;2005566;80;20246;-80
2021/05/26 06:02:43;;;;;;;3.35;0.80;;;;;;;9.51;88.26;99077.91;2010382;78;20980;-80
2021/05/26 06:05:45;;;;;;;4.03;0.74;;;;;;;9.53;88.41;99083.97;2011964;80;20185;-82
2021/05/26 06:08:48;;;;;;;7.21;1.29;;;;;;;9.53;88.21;99085.69;2015742;80;20176;-81
2021/05/26 06:11:51;;;;;;;2.53;0.80;;;;;;;9.54;88.05;99090.03;2018193;80;20177;-84
2021/05/26 06:14:53;;;;;;;10.88;2.38;;;;;;;9.50;88.04;99081.38;2016019;80;20184;-80
2021/05/26 06:17:59;;;;;;;3.28;0.76;;;;;;;9.48;88.32;99075.34;2006886;78;21112;-81
2021/05/26 06:21:03;;;;;;;2.25;0.71;;;;;;;9.49;88.59;99064.09;2005800;80;20181;-81
2021/05/26 06:24:06;;;;;;;4.24;1.06;;;;;;;9.53;88.64;99070.16;2008628;80;20223;-81
2021/05/26 06:27:08;;;;;;;5.59;0.91;;;;;;;9.55;88.59;99064.09;2009764;80;20221;-79
2021/05/26 06:30:12;;;;;;;6.41;0.90;;;;;;;9.58;88.53;99064.06;2006529;80;20193;-79
2021/05/26 06:33:14;;;;;;;3.81;0.74;;;;;;;9.59;88.69;99059.75;2012212;78;20292;-80
2021/05/26 06:36:17;;;;;;;3.45;0.88;;;;;;;9.59;88.52;99058.00;2011735;80;20658;-80
2021/05/26 06:39:20;;;;;;;5.61;1.01;;;;;;;9.58;88.38;99061.47;2011831;80;20671;-79
2021/05/26 06:42:22;;;;;;;4.76;1.04;;;;;;;9.57;88.38;99067.53;2012909;80;20246;-79
2021/05/26 06:45:25;;;;;;;5.95;0.84;;;;;;;9.59;88.67;99068.38;2010880;78;21431;-79
2021/05/26 06:48:27;;;;;;;4.16;0.79;;;;;;;9.65;88.75;99068.34;2016786;80;20606;-83
2021/05/26 06:51:30;;;;;;;3.65;0.90;;;;;;;9.71;88.90;99061.41;2012072;80;20657;-81
2021/05/26 06:54:33;;;;;;;2.06;0.90;;;;;;;9.71;88.79;99061.41;2013764;80;20188;-86
2021/05/26 06:57:36;;;;;;;4.21;0.85;;;;;;;9.70;88.40;99060.56;2025146;80;20177;-86
2021/05/26 07:00:39;;;;;;;5.66;1.08;;;;;;;9.72;88.27;99060.53;2022795;78;20291;-84
2021/05/26 07:03:41;;;;;;;4.43;0.98;;;;;;;9.74;88.36;99057.06;2029793;80;20180;-85
2021/05/26 07:06:44;;;;;;;5.43;1.05;;;;;;;9.77;88.12;99049.25;2029874;80;20194;-85
2021/05/26 07:09:47;;;;;;;4.28;0.91;;;;;;;9.74;87.85;99051.88;2022930;80;20367;-84
2021/05/26 07:12:50;;;;;;;2.45;0.89;;;;;;;9.76;87.82;99057.91;2024174;80;20176;-83
2021/05/26 07:15:53;;;;;;;1.96;0.86;;;;;;;9.81;88.23;99047.50;2024800;80;20188;-85
2021/05/26 07:18:59;;;;;;;2.34;0.70;;;;;;;9.93;87.95;99042.22;2026225;80;20169;-85
2021/05/26 07:22:02;;;;;;;3.81;0.81;;;;;;;9.94;87.58;99051.72;2023387;80;20173;-84
2021/05/26 07:25:06;;;;;;;3.19;0.70;;;;;;;10.07;87.72;99049.91;2030804;80;20198;-86
2021/05/26 07:28:09;;;;;;;4.14;0.96;;;;;;;10.06;87.18;99043.88;2029246;80;20168;-83
2021/05/26 07:31:11;;;;;;;2.04;0.80;;;;;;;10.05;87.12;99036.06;2027230;80;20176;-86
2021/05/26 07:34:14;;;;;;;2.55;0.80;;;;;;;10.03;87.37;99038.69;2026380;80;20460;-84
2021/05/26 07:37:17;;;;;;;2.42;0.81;;;;;;;10.05;87.47;99041.25;2063223;70;20157;-84
2021/05/26 07:40:20;;;;;;;5.18;0.91;;;;;;;10.04;87.65;99039.53;2028217;80;20255;-86
2021/05/26 07:43:24;;;;;;;1.66;0.66;;;;;;;9.97;87.22;99033.56;2015055;80;20189;-80
2021/05/26 07:46:26;;;;;;;3.97;0.66;;;;;;;9.96;87.47;99027.50;2005702;78;20423;-78
2021/05/26 07:49:29;;;;;;;3.19;0.80;;;;;;;10.03;87.75;99027.44;2006531;80;20181;-80
2021/05/26 07:52:32;;;;;;;3.26;0.70;;;;;;;10.05;87.53;99041.25;2005972;80;20603;-78
2021/05/26 07:55:35;;;;;;;4.39;0.70;;;;;;;9.99;87.60;99030.06;2006579;80;20216;-78
2021/05/26 07:58:38;;;;;;;0.91;0.70;;;;;;;10.06;87.69;99032.63;2006397;80;20172;-79
2021/05/26 08:01:42;;;;;;;3.09;0.70;;;;;;;10.10;87.72;99034.31;2003163;78;21534;-79
2021/05/26 08:04:45;;;;;;;1.54;0.66;;;;;;;10.11;88.02;99029.13;2001777;80;20177;-78
2021/05/26 08:07:48;;;;;;;4.30;0.80;;;;;;;10.14;87.76;99026.50;2001615;81;20170;-78
2021/05/26 08:10:50;;;;;;;2.22;0.81;;;;;;;10.18;87.57;99024.72;2001895;81;20223;-79
2021/05/26 08:13:53;;;;;;;1.99;0.80;;;;;;;10.14;87.62;99021.31;2001979;80;20202;-79
2021/05/26 08:16:57;;;;;;;2.55;0.70;;;;;;;10.18;87.79;99023.00;2004682;78;22506;-80
2021/05/26 08:20:01;;;;;;;1.00;0.63;;;;;;;10.17;87.49;99025.59;2007090;80;20587;-80
2021/05/26 08:23:04;;;;;;;1.35;0.63;;;;;;;10.14;87.70;99023.91;2007276;80;20177;-79
2021/05/26 08:26:11;;;;;;;1.02;0.52;;;;;;;10.18;88.13;99022.13;2007251;80;20211;-79
2021/05/26 08:29:14;;;;;;;3.03;0.50;;;;;;;10.21;87.93;99027.31;2006287;80;20672;-78
2021/05/26 08:32:17;;;;;;;1.49;1.01;;;;;;;10.25;88.02;99016.94;2002032;78;22133;-78
2021/05/26 08:35:19;;;;;;;1.35;0.60;;;;;;;10.26;87.95;99018.66;2001387;80;20170;-79
2021/05/26 08:38:22;;;;;;;1.05;0.51;;;;;;;10.32;88.10;99012.53;2007675;80;20333;-82
2021/05/26 08:41:25;;;;;;;0.68;0.54;;;;;;;10.29;87.92;99015.16;2009772;80;20268;-81
2021/05/26 08:44:28;;;;;;;0.85;0.50;;;;;;;10.29;88.16;99018.59;2010579;80;20173;-81
2021/05/26 08:47:35;;;;;;;0.40;0.40;;;;;;;10.29;88.25;99008.22;2017043;77;24012;-86
2021/05/26 08:50:40;;;;;;;0.82;0.50;;;;;;;10.33;88.15;99013.38;2026206;80;20764;-85
2021/05/26 08:53:43;;;;;;;1.52;0.54;;;;;;;10.34;87.88;99005.59;2019770;80;20254;-83
2021/05/26 08:56:45;;;;;;;1.75;0.50;;;;;;;10.40;88.10;99002.91;2018255;80;20679;-84
2021/05/26 08:59:48;;;;;;;0.95;0.40;;;;;;;10.44;87.85;99009.81;2017556;80;20149;-84
2021/05/26 09:02:51;;;;;;;0.80;0.44;;;;;;;10.39;87.89;98998.59;2022557;78;22818;-83
2021/05/26 09:05:53;;;;;;;1.52;0.50;;;;;;;10.49;88.31;99005.44;2015214;80;20238;-83
2021/05/26 09:08:56;;;;;;;0.34;0.34;;;;;;;10.49;87.61;99008.03;2018638;80;20173;-83
2021/05/26 09:11:58;;;;;;;1.65;0.38;;;;;;;10.52;87.94;98999.34;2008169;80;20189;-74
2021/05/26 09:15:08;;;;;;;0.52;0.30;;;;;;;10.59;88.45;99007.06;2005815;80;20575;-75
2021/05/26 09:18:10;;;;;;;;;;;;;;;10.58;88.14;99007.91;2005611;78;27469;-75
2021/05/26 09:21:44;;;;;;;0.38;0.20;;;;;;;10.61;87.86;98999.25;2006451;80;20061;-74
2021/05/26 09:24:48;;;;;;;0.59;0.30;;;;;;;10.69;88.12;98997.44;2006430;80;20230;-75
2021/05/26 09:28:19;;;;;;;0.50;0.39;;;;;;;10.66;87.73;99009.59;2006434;80;20274;-74
2021/05/26 09:31:29;;;;;;;0.74;0.30;;;;;;;10.64;87.82;98996.63;2006301;78;20645;-76
2021/05/26 09:34:37;;;;;;;0.21;0.21;;;;;;;10.64;88.11;99004.41;2006871;80;20189;-75
2021/05/26 09:37:42;;;;;;;1.40;0.45;;;;;;;10.71;88.26;98989.63;2008837;80;20694;-75
2021/05/26 09:40:44;;;;;;;0.70;0.30;;;;;;;10.75;87.80;98999.94;2012024;80;20193;-76
2021/05/26 09:43:50;;;;;;;0.21;0.21;;;;;;;10.80;87.87;99000.78;2012313;80;20168;-75
2021/05/26 09:46:53;;;;;;;0.22;0.22;;;;;;;10.87;87.68;98999.81;2011603;78;24036;-75
2021/05/26 09:50:23;;;;;;;0.25;0.22;;;;;;;10.97;87.93;98987.59;2011401;80;20348;-74
2021/05/26 09:53:25;;;;;;;0.30;0.26;;;;;;;11.01;87.77;98997.06;2011659;80;20249;-75
2021/05/26 09:56:28;;;;;;;0.50;0.21;;;;;;;11.11;87.80;98995.19;2011986;80;20168;-75
2021/05/26 09:59:32;;;;;;;2.91;0.30;;;;;;;11.16;87.33;98996.00;2011550;80;20165;-76
2021/05/26 10:02:35;;;;;;;1.24;0.30;;;;;;;11.25;87.30;98990.66;2006947;78;22282;-75
2021/05/26 10:05:39;;;;;;;0.40;0.20;;;;;;;11.33;86.59;98998.38;2007126;80;20230;-77
2021/05/26 10:08:44;;;;;;;0.31;0.30;;;;;;;11.36;85.70;98994.00;2006715;80;20205;-77
2021/05/26 10:11:53;;;;;;;0.70;0.30;;;;;;;11.46;86.02;98995.56;2006440;80;20177;-77
2021/05/26 10:14:59;;;;;;;0.29;0.25;;;;;;;11.48;85.63;98995.53;2006725;80;20223;-77
2021/05/26 10:18:02;;;;;;;1.63;1.00;;;;;;;11.55;85.79;98999.78;2006815;78;21984;-76
2021/05/26 10:21:05;;;;;;;0.21;0.20;;;;;;;11.59;85.40;98995.41;2006730;80;20208;-77
2021/05/26 10:24:10;;;;;;;0.31;0.30;;;;;;;11.64;85.26;98994.44;2006695;80;20177;-77
2021/05/26 10:27:31;;;;;;;0.20;0.20;;;;;;;11.72;85.50;98995.19;2007042;80;20527;-76
2021/05/26 10:30:48;;;;;;;0.40;0.17;;;;;;;11.79;85.52;99001.19;2005778;78;20161;-77
2021/05/26 10:33:51;;;;;;;0.38;0.20;;;;;;;11.85;85.66;98995.91;2006827;80;20235;-77
2021/05/26 10:36:56;;;;;;;0.24;0.20;;;;;;;11.99;85.51;98996.50;2006029;80;20185;-76
2021/05/26 10:40:01;;;;;;;0.26;0.26;;;;;;;12.19;85.53;98988.38;2006594;80;20667;-77
2021/05/26 10:43:13;;;;;;;0.94;0.20;;;;;;;12.26;84.43;98976.97;2007003;80;20638;-77
2021/05/26 10:46:35;;;;;;;0.20;0.20;;;;;;;12.52;83.33;98989.50;2005444;78;22174;-77
2021/05/26 10:49:50;;;;;;;0.30;0.29;;;;;;;12.87;83.51;98978.41;2006846;80;20642;-77
2021/05/26 10:52:55;;;;;;;0.20;0.20;;;;;;;13.06;82.86;98976.28;2006403;80;20185;-77
2021/05/26 10:55:58;;;;;;;0.20;0.20;;;;;;;13.00;81.81;98973.81;2006251;80;20185;-77
2021/05/26 10:59:14;;;;;;;0.20;0.20;;;;;;;12.87;81.36;98972.34;2006389;80;20181;-77
2021/05/26 11:02:18;;;;;;;1.36;0.20;;;;;;;12.74;81.28;98960.44;2005610;78;22139;-77
2021/05/26 11:05:34;;;;;;;0.77;0.20;;;;;;;12.96;82.73;98966.94;2005788;80;20180;-77
2021/05/26 11:08:41;;;;;;;1.04;0.20;;;;;;;13.05;81.55;98961.53;2006221;80;20197;-77
2021/05/26 11:11:46;;;;;;;0.79;0.30;;;;;;;13.09;81.59;98970.97;2005898;80;20624;-76
2021/05/26 11:14:53;;;;;;;0.96;0.30;;;;;;;13.04;80.60;98969.38;2007310;80;20227;-74
2021/05/26 11:18:14;;;;;;;0.43;0.30;;;;;;;13.02;81.26;98975.47;2005195;78;22139;-74
2021/05/26 11:21:17;;;;;;;0.47;0.20;;;;;;;12.82;80.21;98962.00;2006676;80;20205;-75
2021/05/26 11:24:20;;;;;;;0.30;0.19;;;;;;;12.60;81.11;98971.16;2006425;80;20169;-74
2021/05/26 11:27:26;;;;;;;0.30;0.20;;;;;;;12.58;81.77;98972.94;2006320;80;20173;-75
2021/05/26 11:30:29;;;;;;;0.29;0.20;;;;;;;12.57;81.59;98969.47;2005879;78;20878;-75
2021/05/26 11:33:32;;;;;;;0.77;0.29;;;;;;;12.63;81.10;98977.16;2005952;80;20178;-74
2021/05/26 11:36:45;;;;;;;0.36;0.30;;;;;;;12.58;80.19;98973.78;2009827;80;20288;-74
2021/05/26 11:39:48;;;;;;;0.30;0.30;;;;;;;12.56;81.00;98983.34;2011397;80;20287;-74
2021/05/26 11:42:53;;;;;;;0.85;0.30;;;;;;;12.45;80.84;98972.28;2011530;80;20244;-74
2021/05/26 11:46:07;;;;;;;2.74;0.30;;;;;;;12.57;81.08;98966.88;2010598;77;23803;-74
2021/05/26 11:49:13;;;;;;;3.38;0.30;;;;;;;12.75;81.65;98968.25;2011574;80;20273;-74
2021/05/26 11:52:16;;;;;;;0.46;0.30;;;;;;;12.80;79.63;98968.16;2011380;80;20358;-75
2021/05/26 11:55:23;;;;;;;1.39;0.40;;;;;;;12.81;80.00;98968.13;2011945;80;20196;-74
2021/05/26 11:58:31;;;;;;;1.05;0.36;;;;;;;12.86;78.90;98968.88;2010625;80;20276;-73
2021/05/26 12:01:34;;;;;;;1.92;0.40;;;;;;;12.77;79.15;98961.25;2008103;78;22203;-72
2021/05/26 12:04:39;;;;;;;2.28;0.40;;;;;;;12.67;80.54;98972.72;2006410;80;20222;-72
2021/05/26 12:07:42;;;;;;;0.50;0.30;;;;;;;12.64;81.41;98971.06;2006354;80;20234;-73
2021/05/26 12:10:51;;;;;;;1.65;0.40;;;;;;;12.67;80.69;98980.53;2005940;80;20177;-73
2021/05/26 12:13:54;;;;;;;0.63;0.40;;;;;;;12.85;80.00;98976.72;2006470;80;20189;-74
2021/05/26 12:16:59;;;;;;;0.25;0.25;;;;;;;13.09;79.99;98990.97;2009380;78;30701;-75
2021/05/26 12:20:06;;;;;;;1.95;0.40;;;;;;;13.25;79.42;98987.19;2011281;80;20203;-74
2021/05/26 12:23:08;;;;;;;0.36;0.30;;;;;;;13.45;78.76;98989.34;2018692;80;20192;-84
2021/05/26 12:26:23;;;;;;;0.64;0.36;;;;;;;13.69;79.07;98995.78;2023407;80;20168;-83
2021/05/26 12:29:26;;;;;;;0.60;0.24;;;;;;;13.78;77.70;98995.56;2026207;80;20208;-84
2021/05/26 12:42:43;;;;;;;1.13;0.36;;;;;;;13.15;79.36;99030.84;2070993;70;20188;-83
2021/05/26 12:45:46;;;;;;;0.71;0.20;;;;;;;12.95;80.46;99020.81;2021690;80;20229;-83
2021/05/26 12:58:49;;;;;;;0.71;0.10;;;;;;;12.69;82.44;99052.56;1647973;69;20218;-86
2021/05/26 13:02:05;;;;;;;0.93;0.10;;;;;;;12.80;82.87;99056.72;2141773;70;20185;-84
2021/05/26 13:12:30;;;;;;;0.10;0.10;;;;;;;13.12;80.44;99064.78;2036841;69;20466;-83
2021/05/26 13:15:37;;;;;;;1.83;0.44;;;;;;;13.19;81.17;99071.63;2018946;80;20153;-83
2021/05/26 13:18:41;;;;;;;1.56;0.19;;;;;;;13.40;80.81;99072.06;2019757;80;20204;-84
2021/05/26 13:21:48;;;;;;;0.00;0.00;;;;;;;13.65;80.11;99072.41;2022781;80;20197;-82
2021/05/26 13:24:51;;;;;;;1.20;0.09;;;;;;;13.80;78.72;99077.28;2020273;80;20220;-84
2021/05/26 13:27:57;;;;;;;0.00;0.00;;;;;;;14.03;78.86;99068.94;2020162;80;20185;-83
2021/05/26 13:31:01;;;;;;;0.10;0.10;;;;;;;14.23;78.09;99073.69;2017439;80;20149;-81
2021/05/26 13:34:04;;;;;;;0.10;0.01;;;;;;;14.54;78.23;99074.63;2021689;80;20230;-84
2021/05/26 13:37:07;;;;;;;0.38;0.10;;;;;;;14.79;76.49;99069.66;2022903;80;20198;-84
2021/05/26 13:40:12;;;;;;;1.35;0.10;;;;;;;14.88;75.78;99072.00;2025216;80;20141;-83
2021/05/26 13:43:18;;;;;;;0.10;0.10;;;;;;;14.86;74.96;99075.56;2021839;80;20162;-85
2021/05/26 13:46:25;;;;;;;0.69;0.05;;;;;;;14.77;74.45;99072.31;2027029;80;20159;-83
2021/05/26 13:49:28;;;;;;;0.13;0.10;;;;;;;14.71;73.18;99085.53;2024418;80;20213;-83
2021/05/26 13:52:31;;;;;;;0.39;0.03;;;;;;;14.57;72.59;99076.34;2022018;80;20165;-83
2021/05/26 13:55:41;;;;;;;;;;;;;;;14.60;73.08;99084.97;2157628;70;20153;-85
2021/05/26 13:58:45;;;;;;;0.00;0.00;;;;;;;14.59;70.34;99074.56;2046344;70;20082;-85
2021/05/26 14:05:21;;;;;;;0.00;0.00;;;;;;;14.60;71.76;99084.97;2082874;70;20261;-84
2021/05/26 14:08:24;;;;;;;0.43;0.10;;;;;;;14.53;71.14;99080.75;2024572;80;20250;-83
2021/05/26 14:11:27;;;;;;;1.69;0.01;;;;;;;14.46;70.93;99084.44;2027973;80;20173;-83
2021/05/26 14:14:31;;;;;;;0.10;0.10;;;;;;;14.30;71.81;99086.53;2026326;80;20339;-84
2021/05/26 14:17:34;;;;;;;0.10;0.10;;;;;;;14.20;71.48;99079.84;2025102;77;210331;-82
2021/05/26 14:20:38;;;;;;;0.10;0.10;;;;;;;14.18;69.74;99085.09;2024054;80;20167;-83
2021/05/26 14:23:41;;;;;;;0.26;0.10;;;;;;;14.25;70.70;99090.16;2025236;80;20272;-82
2021/05/26 14:26:44;;;;;;;0.10;0.10;;;;;;;14.27;70.52;99093.59;2025567;80;20190;-82
2021/05/26 14:29:47;;;;;;;0.14;0.10;;;;;;;14.31;69.97;99092.63;2029841;80;20409;-81
2021/05/26 14:32:51;;;;;;;0.20;0.10;;;;;;;14.37;69.33;99093.34;2021284;77;223923;-82
2021/05/26 14:35:56;;;;;;;0.10;0.10;;;;;;;14.29;69.25;99094.41;2024226;80;20132;-83
2021/05/26 14:39:01;;;;;;;1.98;0.10;;;;;;;14.38;70.22;99096.81;2023982;80;20733;-74
2021/05/26 14:42:04;;;;;;;0.35;0.16;;;;;;;14.50;69.75;99099.13;2011997;80;20244;-73
2021/05/26 14:45:10;;;;;;;0.10;0.10;;;;;;;14.54;69.32;99107.75;2011694;80;20202;-73
2021/05/26 14:48:12;;;;;;;1.69;0.10;;;;;;;14.56;69.00;99104.22;2012454;80;20214;-75
2021/05/26 14:51:15;;;;;;;0.32;0.15;;;;;;;14.62;68.73;99105.81;2012435;80;20188;-74
2021/05/26 14:54:18;;;;;;;0.10;0.10;;;;;;;14.51;65.72;99098.25;2012425;80;20250;-74
2021/05/26 14:57:20;;;;;;;0.20;0.10;;;;;;;14.42;64.73;99106.28;2012781;80;20164;-73
2021/05/26 15:00:23;;;;;;;0.47;0.38;;;;;;;14.36;66.38;99104.69;2011167;78;22125;-73
2021/05/26 15:03:26;;;;;;;2.05;0.20;;;;;;;14.37;66.74;99109.03;2011827;80;20202;-73
2021/05/26 15:06:29;;;;;;;2.74;0.13;;;;;;;14.31;66.79;99101.31;2011379;80;20291;-73
2021/05/26 15:09:31;;;;;;;0.30;0.15;;;;;;;14.32;66.20;99103.03;2011577;80;20183;-73